sensor_id;sensor_type;location;lat;lon;timestamp;pressure;altitude;pressure_sealevel;temperature;humidity
56825;BME280;42705;50.326;18.772;2023-02-01T00:03:44;97897.95;;;1.23;80.72
56825;BME280;42705;50.326;18.772;2023-02-01T00:09:06;97886.40;;;1.20;80.64
56825;BME280;42705;50.326;18.772;2023-02-01T00:14:28;97863.73;;;1.17;80.60
56825;BME280;42705;50.326;18.772;2023-02-01T00:19:49;97862.15;;;1.15;80.16
56825;BME280;42705;50.326;18.772;2023-02-01T00:25:11;97864.63;;;1.08;80.54
56825;BME280;42705;50.326;18.772;2023-02-01T00:30:33;97865.48;;;1.05;80.34
56825;BME280;42705;50.326;18.772;2023-02-01T00:36:07;97850.90;;;1.13;80.44
56825;BME280;42705;50.326;18.772;2023-02-01T00:41:28;97858.89;;;1.26;80.07
56825;BME280;42705;50.326;18.772;2023-02-01T00:46:49;97893.14;;;1.45;79.85
56825;BME280;42705;50.326;18.772;2023-02-01T00:52:10;97969.40;;;1.62;79.63
56825;BME280;42705;50.326;18.772;2023-02-01T00:57:32;97977.00;;;1.53;79.44
56825;BME280;42705;50.326;18.772;2023-02-01T01:02:53;97972.76;;;1.40;79.39
56825;BME280;42705;50.326;18.772;2023-02-01T01:08:15;97989.23;;;1.21;79.32
56825;BME280;42705;50.326;18.772;2023-02-01T01:13:37;97974.86;;;0.96;79.52
56825;BME280;42705;50.326;18.772;2023-02-01T01:18:58;97959.74;;;0.78;79.47
56825;BME280;42705;50.326;18.772;2023-02-01T01:24:20;97973.39;;;0.68;79.58
56825;BME280;42705;50.326;18.772;2023-02-01T01:29:41;97986.64;;;0.68;79.71
56825;BME280;42705;50.326;18.772;2023-02-01T01:35:03;98001.76;;;0.62;79.54
56825;BME280;42705;50.326;18.772;2023-02-01T01:40:26;97989.61;;;0.55;79.86
56825;BME280;42705;50.326;18.772;2023-02-01T01:45:48;97969.41;;;0.48;79.87
56825;BME280;42705;50.326;18.772;2023-02-01T01:51:11;97974.44;;;0.38;80.18
56825;BME280;42705;50.326;18.772;2023-02-01T01:56:35;97976.67;;;0.29;80.18
56825;BME280;42705;50.326;18.772;2023-02-01T02:01:57;97967.63;;;0.27;80.56
56825;BME280;42705;50.326;18.772;2023-02-01T02:07:26;97962.12;;;0.25;80.61
56825;BME280;42705;50.326;18.772;2023-02-01T02:12:49;97963.70;;;0.18;80.79
56825;BME280;42705;50.326;18.772;2023-02-01T02:18:26;97958.44;;;0.20;80.72
56825;BME280;42705;50.326;18.772;2023-02-01T02:24:10;97964.11;;;0.20;81.18
56825;BME280;42705;50.326;18.772;2023-02-01T02:41:33;97968.42;;;0.26;81.14
56825;BME280;42705;50.326;18.772;2023-02-01T02:47:27;97975.59;;;0.24;80.95
56825;BME280;42705;50.326;18.772;2023-02-01T02:53:16;97974.04;;;0.26;80.96
56825;BME280;42705;50.326;18.772;2023-02-01T02:58:58;97968.93;;;0.26;81.36
56825;BME280;42705;50.326;18.772;2023-02-01T03:04:39;97970.91;;;0.24;81.22
56825;BME280;42705;50.326;18.772;2023-02-01T03:10:09;97964.64;;;0.29;81.31
56825;BME280;42705;50.326;18.772;2023-02-01T03:21:50;97984.83;;;0.36;81.28
56825;BME280;42705;50.326;18.772;2023-02-01T03:27:44;97992.10;;;0.35;81.67
56825;BME280;42705;50.326;18.772;2023-02-01T03:33:16;97994.48;;;0.27;81.50
56825;BME280;42705;50.326;18.772;2023-02-01T03:38:52;98001.31;;;0.18;81.41
56825;BME280;42705;50.326;18.772;2023-02-01T03:44:22;98009.08;;;0.17;81.76
56825;BME280;42705;50.326;18.772;2023-02-01T03:50:18;97992.71;;;0.15;81.64
56825;BME280;42705;50.326;18.772;2023-02-01T03:55:41;97985.52;;;0.08;82.00
56825;BME280;42705;50.326;18.772;2023-02-01T04:01:04;97982.70;;;0.07;82.06
56825;BME280;42705;50.326;18.772;2023-02-01T04:06:26;97979.64;;;0.06;82.16
56825;BME280;42705;50.326;18.772;2023-02-01T04:11:50;97981.33;;;0.04;82.34
56825;BME280;42705;50.326;18.772;2023-02-01T04:17:11;97977.35;;;0.01;82.22
56825;BME280;42705;50.326;18.772;2023-02-01T04:22:33;97973.83;;;0.06;82.33
56825;BME280;42705;50.326;18.772;2023-02-01T04:27:54;97975.70;;;0.09;82.27
56825;BME280;42705;50.326;18.772;2023-02-01T04:33:15;97965.33;;;0.10;82.45
56825;BME280;42705;50.326;18.772;2023-02-01T04:38:37;97963.19;;;0.15;82.22
56825;BME280;42705;50.326;18.772;2023-02-01T04:43:58;97965.20;;;0.19;82.51
56825;BME280;42705;50.326;18.772;2023-02-01T04:49:19;97962.73;;;0.20;82.55
56825;BME280;42705;50.326;18.772;2023-02-01T04:54:42;97965.11;;;0.24;82.35
56825;BME280;42705;50.326;18.772;2023-02-01T05:00:04;97961.04;;;0.26;82.45
56825;BME280;42705;50.326;18.772;2023-02-01T05:05:27;97959.27;;;0.26;82.25
56825;BME280;42705;50.326;18.772;2023-02-01T05:10:48;97957.41;;;0.29;82.10
56825;BME280;42705;50.326;18.772;2023-02-01T05:16:10;97956.86;;;0.33;81.83
56825;BME280;42705;50.326;18.772;2023-02-01T05:21:31;97950.73;;;0.35;81.90
56825;BME280;42705;50.326;18.772;2023-02-01T05:26:52;97949.96;;;0.36;81.70
56825;BME280;42705;50.326;18.772;2023-02-01T05:32:13;97952.36;;;0.43;81.56
56825;BME280;42705;50.326;18.772;2023-02-01T05:37:35;97939.71;;;0.50;81.12
56825;BME280;42705;50.326;18.772;2023-02-01T05:42:56;97943.05;;;0.55;80.97
56825;BME280;42705;50.326;18.772;2023-02-01T05:48:18;97942.64;;;0.62;80.72
56825;BME280;42705;50.326;18.772;2023-02-01T05:53:39;97937.65;;;0.68;80.28
56825;BME280;42705;50.326;18.772;2023-02-01T05:59:01;97936.64;;;0.70;80.22
56825;BME280;42705;50.326;18.772;2023-02-01T06:04:22;97936.23;;;0.75;80.25
56825;BME280;42705;50.326;18.772;2023-02-01T06:09:43;97951.10;;;0.79;79.87
56825;BME280;42705;50.326;18.772;2023-02-01T06:15:05;97956.05;;;0.80;79.72
56825;BME280;42705;50.326;18.772;2023-02-01T06:20:27;97953.39;;;0.84;79.41
56825;BME280;42705;50.326;18.772;2023-02-01T06:25:48;97957.60;;;0.89;79.38
56825;BME280;42705;50.326;18.772;2023-02-01T06:31:09;97964.20;;;0.91;79.03
56825;BME280;42705;50.326;18.772;2023-02-01T06:36:31;97957.70;;;0.96;78.83
56825;BME280;42705;50.326;18.772;2023-02-01T06:41:52;97960.34;;;1.00;78.78
56825;BME280;42705;50.326;18.772;2023-02-01T06:47:14;97953.17;;;1.02;78.43
56825;BME280;42705;50.326;18.772;2023-02-01T06:52:35;97943.42;;;1.07;78.19
56825;BME280;42705;50.326;18.772;2023-02-01T06:57:57;97947.14;;;1.11;78.06
56825;BME280;42705;50.326;18.772;2023-02-01T07:03:18;97949.48;;;1.12;77.70
56825;BME280;42705;50.326;18.772;2023-02-01T07:08:39;97945.02;;;1.15;77.40
56825;BME280;42705;50.326;18.772;2023-02-01T07:14:01;97941.28;;;1.20;77.20
56825;BME280;42705;50.326;18.772;2023-02-01T07:19:23;97941.54;;;1.25;76.89
56825;BME280;42705;50.326;18.772;2023-02-01T07:24:44;97942.41;;;1.33;76.36
56825;BME280;42705;50.326;18.772;2023-02-01T07:30:06;97947.23;;;1.36;76.29
56825;BME280;42705;50.326;18.772;2023-02-01T07:35:28;97946.84;;;1.39;75.88
56825;BME280;42705;50.326;18.772;2023-02-01T07:40:49;97950.13;;;1.50;75.59
56825;BME280;42705;50.326;18.772;2023-02-01T07:46:11;97949.07;;;1.59;75.05
56825;BME280;42705;50.326;18.772;2023-02-01T07:51:32;97950.99;;;1.64;74.47
56825;BME280;42705;50.326;18.772;2023-02-01T07:56:53;97949.77;;;1.70;74.09
56825;BME280;42705;50.326;18.772;2023-02-01T08:02:15;97949.70;;;1.71;73.89
56825;BME280;42705;50.326;18.772;2023-02-01T08:07:36;97947.20;;;1.67;73.59
56825;BME280;42705;50.326;18.772;2023-02-01T08:12:59;97948.03;;;1.62;73.66
56825;BME280;42705;50.326;18.772;2023-02-01T08:18:20;97947.52;;;1.62;73.59
56825;BME280;42705;50.326;18.772;2023-02-01T08:23:42;97942.94;;;1.58;73.43
56825;BME280;42705;50.326;18.772;2023-02-01T08:29:05;97941.73;;;1.52;73.47
56825;BME280;42705;50.326;18.772;2023-02-01T08:34:27;97944.30;;;1.53;73.51
56825;BME280;42705;50.326;18.772;2023-02-01T08:39:48;97940.93;;;1.54;73.53
56825;BME280;42705;50.326;18.772;2023-02-01T08:45:11;97946.48;;;1.59;73.21
56825;BME280;42705;50.326;18.772;2023-02-01T08:50:32;97940.48;;;1.70;72.93
56825;BME280;42705;50.326;18.772;2023-02-01T08:55:53;97938.80;;;1.80;72.83
56825;BME280;42705;50.326;18.772;2023-02-01T09:01:16;97944.85;;;1.85;72.70
56825;BME280;42705;50.326;18.772;2023-02-01T09:06:40;97939.70;;;1.90;72.57
56825;BME280;42705;50.326;18.772;2023-02-01T09:12:03;97938.96;;;1.97;72.25
56825;BME280;42705;50.326;18.772;2023-02-01T09:17:28;97936.22;;;1.99;71.96
56825;BME280;42705;50.326;18.772;2023-02-01T09:22:52;97939.44;;;2.00;72.05
56825;BME280;42705;50.326;18.772;2023-02-01T09:28:13;97935.69;;;2.10;71.86
56825;BME280;42705;50.326;18.772;2023-02-01T09:33:35;97928.25;;;2.24;71.79
56825;BME280;42705;50.326;18.772;2023-02-01T09:38:56;97921.99;;;2.36;71.53
56825;BME280;42705;50.326;18.772;2023-02-01T09:44:25;97919.66;;;2.48;71.32
56825;BME280;42705;50.326;18.772;2023-02-01T09:50:05;97916.92;;;2.60;71.32
56825;BME280;42705;50.326;18.772;2023-02-01T09:55:45;97909.83;;;2.76;71.43
56825;BME280;42705;50.326;18.772;2023-02-01T10:01:18;97903.89;;;2.90;70.93
56825;BME280;42705;50.326;18.772;2023-02-01T10:12:27;97897.73;;;2.79;70.91
56825;BME280;42705;50.326;18.772;2023-02-01T10:29:25;97891.41;;;2.73;71.27
56825;BME280;42705;50.326;18.772;2023-02-01T10:35:02;97892.95;;;2.71;71.29
56825;BME280;42705;50.326;18.772;2023-02-01T10:40:25;97879.41;;;2.83;71.19
56825;BME280;42705;50.326;18.772;2023-02-01T10:45:46;97876.54;;;2.92;70.97
56825;BME280;42705;50.326;18.772;2023-02-01T10:56:44;97869.86;;;2.96;70.61
56825;BME280;42705;50.326;18.772;2023-02-01T11:02:26;97866.38;;;3.01;70.66
56825;BME280;42705;50.326;18.772;2023-02-01T11:07:53;97863.61;;;3.04;70.61
56825;BME280;42705;50.326;18.772;2023-02-01T11:13:18;97860.83;;;3.10;70.19
56825;BME280;42705;50.326;18.772;2023-02-01T11:18:39;97855.79;;;3.10;70.00
56825;BME280;42705;50.326;18.772;2023-02-01T11:24:05;97849.93;;;3.15;69.92
56825;BME280;42705;50.326;18.772;2023-02-01T11:29:40;97844.69;;;3.23;69.75
56825;BME280;42705;50.326;18.772;2023-02-01T11:35:05;97832.74;;;3.33;69.39
56825;BME280;42705;50.326;18.772;2023-02-01T11:40:33;97829.20;;;3.37;69.26
56825;BME280;42705;50.326;18.772;2023-02-01T11:46:02;97825.39;;;3.45;68.80
56825;BME280;42705;50.326;18.772;2023-02-01T11:51:34;97819.93;;;3.54;68.43
56825;BME280;42705;50.326;18.772;2023-02-01T11:57:04;97806.89;;;3.62;68.54
56825;BME280;42705;50.326;18.772;2023-02-01T12:25:37;97799.80;;;3.33;68.31
56825;BME280;42705;50.326;18.772;2023-02-01T12:49:01;97754.15;;;3.25;69.19
56825;BME280;42705;50.326;18.772;2023-02-01T12:54:39;97746.38;;;3.25;69.22
56825;BME280;42705;50.326;18.772;2023-02-01T13:00:06;97741.32;;;3.11;69.27
56825;BME280;42705;50.326;18.772;2023-02-01T13:11:16;97730.50;;;2.93;70.12
56825;BME280;42705;50.326;18.772;2023-02-01T13:16:52;97722.62;;;2.87;70.50
56825;BME280;42705;50.326;18.772;2023-02-01T13:22:28;97718.41;;;2.84;70.88
56825;BME280;42705;50.326;18.772;2023-02-01T13:27:54;97726.92;;;2.78;71.40
56825;BME280;42705;50.326;18.772;2023-02-01T13:33:38;97739.13;;;2.66;71.71
56825;BME280;42705;50.326;18.772;2023-02-01T13:45:12;97758.33;;;2.30;72.72
56825;BME280;42705;50.326;18.772;2023-02-01T13:50:37;97762.34;;;2.06;73.13
56825;BME280;42705;50.326;18.772;2023-02-01T13:56:03;97760.95;;;1.85;73.70
56825;BME280;42705;50.326;18.772;2023-02-01T14:06:52;97756.45;;;1.51;75.32
56825;BME280;42705;50.326;18.772;2023-02-01T14:12:48;97748.30;;;1.41;76.23
56825;BME280;42705;50.326;18.772;2023-02-01T14:24:00;97744.04;;;1.24;77.25
56825;BME280;42705;50.326;18.772;2023-02-01T14:29:29;97745.82;;;1.15;77.59
56825;BME280;42705;50.326;18.772;2023-02-01T14:34:54;97746.80;;;1.05;78.07
56825;BME280;42705;50.326;18.772;2023-02-01T14:40:24;97751.79;;;1.08;78.32
56825;BME280;42705;50.326;18.772;2023-02-01T14:45:50;97756.36;;;1.11;78.81
56825;BME280;42705;50.326;18.772;2023-02-01T14:51:14;97754.27;;;1.15;79.18
56825;BME280;42705;50.326;18.772;2023-02-01T14:56:36;97754.46;;;1.25;79.38
56825;BME280;42705;50.326;18.772;2023-02-01T15:02:00;97765.31;;;1.39;79.50
56825;BME280;42705;50.326;18.772;2023-02-01T15:07:25;97767.49;;;1.51;79.28
56825;BME280;42705;50.326;18.772;2023-02-01T15:12:47;97770.20;;;1.64;79.55
56825;BME280;42705;50.326;18.772;2023-02-01T15:18:16;97781.36;;;1.78;79.19
56825;BME280;42705;50.326;18.772;2023-02-01T15:23:39;97784.30;;;1.91;79.26
56825;BME280;42705;50.326;18.772;2023-02-01T15:29:00;97782.42;;;2.04;78.99
56825;BME280;42705;50.326;18.772;2023-02-01T15:34:22;97785.39;;;2.09;78.79
56825;BME280;42705;50.326;18.772;2023-02-01T15:45:32;97788.77;;;2.10;78.76
56825;BME280;42705;50.326;18.772;2023-02-01T15:50:54;97799.66;;;2.09;78.83
56825;BME280;42705;50.326;18.772;2023-02-01T15:56:22;97797.64;;;2.09;78.88
56825;BME280;42705;50.326;18.772;2023-02-01T16:01:44;97806.48;;;2.10;78.73
56825;BME280;42705;50.326;18.772;2023-02-01T16:07:33;97811.22;;;2.09;78.48
56825;BME280;42705;50.326;18.772;2023-02-01T16:12:54;97810.02;;;2.03;78.85
56825;BME280;42705;50.326;18.772;2023-02-01T16:18:19;97810.75;;;2.03;78.60
56825;BME280;42705;50.326;18.772;2023-02-01T16:23:40;97805.48;;;2.02;78.63
56825;BME280;42705;50.326;18.772;2023-02-01T16:29:02;97808.38;;;2.00;78.59
56825;BME280;42705;50.326;18.772;2023-02-01T16:34:27;97797.86;;;1.99;78.64
56825;BME280;42705;50.326;18.772;2023-02-01T16:39:49;97795.98;;;1.97;78.67
56825;BME280;42705;50.326;18.772;2023-02-01T16:45:10;97817.80;;;1.93;78.66
56825;BME280;42705;50.326;18.772;2023-02-01T16:50:32;97823.16;;;1.95;78.43
56825;BME280;42705;50.326;18.772;2023-02-01T16:55:55;97834.77;;;1.97;78.24
56825;BME280;42705;50.326;18.772;2023-02-01T17:01:18;97843.48;;;1.97;78.07
56825;BME280;42705;50.326;18.772;2023-02-01T17:06:40;97846.41;;;2.00;78.24
56825;BME280;42705;50.326;18.772;2023-02-01T17:12:03;97840.42;;;2.00;77.83
56825;BME280;42705;50.326;18.772;2023-02-01T17:17:36;97843.11;;;1.93;77.86
56825;BME280;42705;50.326;18.772;2023-02-01T17:22:59;97842.55;;;1.88;77.67
56825;BME280;42705;50.326;18.772;2023-02-01T17:28:21;97841.27;;;1.92;77.68
56825;BME280;42705;50.326;18.772;2023-02-01T17:33:44;97847.95;;;1.90;77.63
56825;BME280;42705;50.326;18.772;2023-02-01T17:39:06;97851.93;;;1.82;77.77
56825;BME280;42705;50.326;18.772;2023-02-01T17:44:27;97853.58;;;1.78;77.64
56825;BME280;42705;50.326;18.772;2023-02-01T17:49:49;97842.76;;;1.71;77.82
56825;BME280;42705;50.326;18.772;2023-02-01T17:55:21;97849.06;;;1.64;77.63
56825;BME280;42705;50.326;18.772;2023-02-01T18:00:45;97841.23;;;1.63;77.83
56825;BME280;42705;50.326;18.772;2023-02-01T18:06:18;97827.56;;;1.64;78.11
56825;BME280;42705;50.326;18.772;2023-02-01T18:11:39;97823.36;;;1.65;78.01
56825;BME280;42705;50.326;18.772;2023-02-01T18:17:02;97810.98;;;1.67;78.18
56825;BME280;42705;50.326;18.772;2023-02-01T18:22:23;97799.30;;;1.67;77.91
56825;BME280;42705;50.326;18.772;2023-02-01T18:27:48;97795.52;;;1.64;77.91
56825;BME280;42705;50.326;18.772;2023-02-01T18:33:12;97815.42;;;1.63;77.96
56825;BME280;42705;50.326;18.772;2023-02-01T18:38:33;97817.66;;;1.57;77.85
56825;BME280;42705;50.326;18.772;2023-02-01T18:43:55;97817.77;;;1.53;78.27
56825;BME280;42705;50.326;18.772;2023-02-01T18:49:18;97797.03;;;1.49;78.04
56825;BME280;42705;50.326;18.772;2023-02-01T18:54:39;97791.63;;;1.47;78.46
56825;BME280;42705;50.326;18.772;2023-02-01T19:00:02;97791.56;;;1.51;78.36
56825;BME280;42705;50.326;18.772;2023-02-01T19:05:24;97789.50;;;1.54;78.46
56825;BME280;42705;50.326;18.772;2023-02-01T19:10:45;97775.19;;;1.48;78.24
56825;BME280;42705;50.326;18.772;2023-02-01T19:16:09;97762.80;;;1.43;78.43
56825;BME280;42705;50.326;18.772;2023-02-01T19:21:31;97753.25;;;1.39;78.42
56825;BME280;42705;50.326;18.772;2023-02-01T19:26:52;97742.98;;;1.36;78.40
56825;BME280;42705;50.326;18.772;2023-02-01T19:32:14;97730.52;;;1.37;78.34
56825;BME280;42705;50.326;18.772;2023-02-01T19:37:35;97726.27;;;1.39;78.44
56825;BME280;42705;50.326;18.772;2023-02-01T19:42:57;97720.92;;;1.36;78.29
56825;BME280;42705;50.326;18.772;2023-02-01T19:48:19;97713.48;;;1.34;78.53
56825;BME280;42705;50.326;18.772;2023-02-01T19:53:40;97714.39;;;1.36;78.18
56825;BME280;42705;50.326;18.772;2023-02-01T19:59:02;97702.61;;;1.35;78.14
56825;BME280;42705;50.326;18.772;2023-02-01T20:04:24;97681.39;;;1.33;78.37
56825;BME280;42705;50.326;18.772;2023-02-01T20:09:47;97675.98;;;1.39;78.53
56825;BME280;42705;50.326;18.772;2023-02-01T20:15:08;97666.89;;;1.44;78.37
56825;BME280;42705;50.326;18.772;2023-02-01T20:20:30;97656.64;;;1.46;78.39
56825;BME280;42705;50.326;18.772;2023-02-01T20:25:51;97663.29;;;1.47;78.35
56825;BME280;42705;50.326;18.772;2023-02-01T20:31:13;97673.69;;;1.45;78.36
56825;BME280;42705;50.326;18.772;2023-02-01T20:36:35;97681.44;;;1.37;78.31
56825;BME280;42705;50.326;18.772;2023-02-01T20:41:56;97676.38;;;1.30;78.47
56825;BME280;42705;50.326;18.772;2023-02-01T20:47:17;97668.26;;;1.18;78.61
56825;BME280;42705;50.326;18.772;2023-02-01T20:52:39;97656.20;;;0.99;79.06
56825;BME280;42705;50.326;18.772;2023-02-01T20:58:02;97641.80;;;0.87;79.48
56825;BME280;42705;50.326;18.772;2023-02-01T21:03:23;97632.48;;;0.77;79.40
56825;BME280;42705;50.326;18.772;2023-02-01T21:08:44;97625.59;;;0.72;79.98
56825;BME280;42705;50.326;18.772;2023-02-01T21:14:06;97616.02;;;0.69;79.98
56825;BME280;42705;50.326;18.772;2023-02-01T21:19:29;97613.48;;;0.63;80.34
56825;BME280;42705;50.326;18.772;2023-02-01T21:25:03;97605.80;;;0.62;80.49
56825;BME280;42705;50.326;18.772;2023-02-01T21:30:24;97591.96;;;0.63;81.06
56825;BME280;42705;50.326;18.772;2023-02-01T21:35:49;97593.00;;;0.68;80.88
56825;BME280;42705;50.326;18.772;2023-02-01T21:41:10;97588.11;;;0.75;80.92
56825;BME280;42705;50.326;18.772;2023-02-01T21:46:50;97589.14;;;0.80;80.74
56825;BME280;42705;50.326;18.772;2023-02-01T21:52:12;97590.86;;;0.85;81.15
56825;BME280;42705;50.326;18.772;2023-02-01T21:57:34;97589.20;;;0.93;81.28
56825;BME280;42705;50.326;18.772;2023-02-01T22:02:56;97592.58;;;0.99;81.77
56825;BME280;42705;50.326;18.772;2023-02-01T22:08:17;97589.20;;;1.11;81.42
56825;BME280;42705;50.326;18.772;2023-02-01T22:13:38;97585.92;;;1.22;81.41
56825;BME280;42705;50.326;18.772;2023-02-01T22:19:00;97589.14;;;1.28;81.53
56825;BME280;42705;50.326;18.772;2023-02-01T22:24:21;97590.74;;;1.37;81.24
56825;BME280;42705;50.326;18.772;2023-02-01T22:29:43;97594.95;;;1.44;81.07
56825;BME280;42705;50.326;18.772;2023-02-01T22:35:05;97597.92;;;1.49;80.93
56825;BME280;42705;50.326;18.772;2023-02-01T22:40:27;97624.48;;;1.55;80.44
56825;BME280;42705;50.326;18.772;2023-02-01T22:45:49;97630.39;;;1.47;80.04
56825;BME280;42705;50.326;18.772;2023-02-01T22:51:19;97638.86;;;1.31;79.92
56825;BME280;42705;50.326;18.772;2023-02-01T22:56:40;97641.56;;;1.15;80.10
56825;BME280;42705;50.326;18.772;2023-02-01T23:02:02;97638.33;;;0.96;80.16
56825;BME280;42705;50.326;18.772;2023-02-01T23:07:23;97642.52;;;0.76;80.28
56825;BME280;42705;50.326;18.772;2023-02-01T23:12:45;97641.89;;;0.65;80.42
56825;BME280;42705;50.326;18.772;2023-02-01T23:18:07;97649.77;;;0.48;80.51
56825;BME280;42705;50.326;18.772;2023-02-01T23:23:28;97655.49;;;0.33;80.69
56825;BME280;42705;50.326;18.772;2023-02-01T23:28:50;97647.89;;;0.23;80.72
56825;BME280;42705;50.326;18.772;2023-02-01T23:34:14;97653.52;;;0.15;80.87
56825;BME280;42705;50.326;18.772;2023-02-01T23:39:35;97660.78;;;0.09;81.28
56825;BME280;42705;50.326;18.772;2023-02-01T23:44:56;97658.27;;;0.10;81.19
56825;BME280;42705;50.326;18.772;2023-02-01T23:50:18;97657.35;;;0.09;81.25
56825;BME280;42705;50.326;18.772;2023-02-01T23:55:39;97656.16;;;0.06;81.65
